Terminal Aerodrome Forecast
Issued by NWS Cleveland, OH

Home | Current Version | Previous Version | Graphics & Text | Print | Product List | Glossary On
Versions: 1 2 3 4 5 6 7 8 9 10 11 12 13 14 15 16 17 18
000
FTUS41 KCLE 240534
TAFERI
TAF
KERI 240534Z 2406/2506 07008KT 4SM BR VCSH SCT018 BKN060
      TEMPO 2406/2410 2SM -SHRA BR BKN018
     FM241000 13009KT 6SM BR SCT015 OVC040
      TEMPO 2410/2413 3SM -SHRA BR BKN015
     FM241500 18014G24KT P6SM SCT025 BKN100
     FM242100 19014KT P6SM SCT050 BKN200=

USA.gov is the U.S. government's official web portal to all federal, state and local government web resources and services.